Time;durP1;ratioP1;P1;durP2;ratioP2;P2;SDS_P1;SDS_P2;PMS_P1;PMS_P2;Temp;Humidity;BMP_temperature;BMP_pressure;BME280_temperature;BME280_humidity;BME280_pressure;Samples;Min_cycle;Max_cycle;Signal;HPM_P1;HPM_P2
2022/05/03 00:00:51;;;;;;;14.88;9.15;;;;;;;12.97;62.48;101217.25;5106348;27;20584;-71
2022/05/03 00:03:24;;;;;;;13.95;9.02;;;;;;;12.83;63.20;101219.75;5114045;27;20051;-71
2022/05/03 00:06:01;;;;;;;12.60;8.93;;;;;;;12.99;61.76;101214.53;5128116;27;20051;-71
2022/05/03 00:08:32;;;;;;;12.82;8.43;;;;;;;12.99;61.47;101218.03;5112655;27;20051;-71
2022/05/03 00:11:08;;;;;;;12.17;8.53;;;;;;;12.86;61.79;101216.97;5104885;27;20066;-71
2022/05/03 00:13:42;;;;;;;13.75;8.85;;;;;;;12.95;61.55;101219.13;5110484;27;20432;-71
2022/05/03 00:16:10;;;;;;;18.27;9.40;;;;;;;12.79;62.04;101227.91;5106209;27;20079;-71
2022/05/03 00:18:37;;;;;;;14.68;9.73;;;;;;;12.66;62.30;101217.19;5105954;27;20071;-71
2022/05/03 00:21:03;;;;;;;15.43;9.57;;;;;;;12.33;62.82;101214.53;5106186;27;20072;-71
2022/05/03 00:23:30;;;;;;;17.05;9.88;;;;;;;12.56;61.81;101215.97;5115004;27;20088;-71
2022/05/03 00:25:57;;;;;;;23.65;10.00;;;;;;;12.34;62.66;101213.56;5128047;27;20071;-71
2022/05/03 00:28:27;;;;;;;16.55;9.65;;;;;;;12.61;61.50;101216.56;5127388;27;20127;-71
2022/05/03 00:30:53;;;;;;;13.48;9.50;;;;;;;12.81;60.42;101211.13;5126867;27;20276;-71
2022/05/03 00:33:21;;;;;;;12.52;8.77;;;;;;;12.82;60.21;101217.22;5110084;27;20120;-71
2022/05/03 00:35:49;;;;;;;14.85;9.27;;;;;;;12.59;60.88;101219.28;5106797;28;20059;-71
2022/05/03 00:38:15;;;;;;;13.05;8.98;;;;;;;12.66;60.06;101214.56;5106038;28;20396;-71
2022/05/03 00:40:49;;;;;;;17.42;9.38;;;;;;;12.50;60.67;101216.28;5106328;27;20051;-71
2022/05/03 00:43:23;;;;;;;16.83;9.45;;;;;;;12.73;59.79;101212.44;5106130;28;20071;-71
2022/05/03 00:45:57;;;;;;;20.23;9.35;;;;;;;12.24;61.08;101209.72;5108230;27;20047;-71
2022/05/03 00:48:46;;;;;;;15.05;9.23;;;;;;;12.29;61.04;101217.38;5109305;27;20055;-71
2022/05/03 00:51:16;;;;;;;15.10;9.27;;;;;;;12.56;59.84;101221.25;5109962;27;20040;-71
2022/05/03 00:53:56;;;;;;;13.48;9.27;;;;;;;12.65;59.07;101224.22;5109785;27;20052;-71
2022/05/03 00:56:34;;;;;;;13.43;8.80;;;;;;;12.71;58.93;101227.47;5093730;27;20036;-71
2022/05/03 00:59:17;;;;;;;14.80;9.00;;;;;;;12.62;59.15;101215.66;5087441;28;20044;-71
2022/05/03 01:01:55;;;;;;;15.50;9.18;;;;;;;12.60;59.37;101209.63;5106723;27;20044;-71
2022/05/03 01:04:26;;;;;;;11.80;8.32;;;;;;;12.87;58.54;101210.78;5103303;28;20047;-71
2022/05/03 01:06:56;;;;;;;13.15;8.73;;;;;;;12.46;59.60;101207.69;5105272;27;20059;-71
2022/05/03 01:09:32;;;;;;;11.65;8.93;;;;;;;12.34;60.66;101208.31;5100863;27;20043;-71
2022/05/03 01:12:08;;;;;;;12.82;8.50;;;;;;;12.19;61.44;101212.59;5101225;27;20097;-71
2022/05/03 01:14:48;;;;;;;12.88;8.98;;;;;;;12.40;60.92;101212.44;5108150;27;20046;-71
2022/05/03 01:17:25;;;;;;;13.75;9.02;;;;;;;12.22;61.31;101201.09;5108492;27;20101;-71
2022/05/03 01:20:04;;;;;;;14.25;9.18;;;;;;;12.04;62.14;101202.03;5099588;27;20093;-71
2022/05/03 01:23:13;;;;;;;15.68;9.50;;;;;;;12.15;60.99;101194.44;5108388;27;20039;-72
2022/05/03 01:25:53;;;;;;;16.98;9.00;;;;;;;11.99;61.22;101198.75;5107265;27;20067;-71
2022/05/03 01:28:29;;;;;;;16.23;9.82;;;;;;;11.75;61.88;101198.19;5108369;28;20071;-72
2022/05/03 01:30:58;;;;;;;13.00;9.60;;;;;;;12.00;60.76;101193.44;5108016;28;20092;-71
2022/05/03 01:33:31;;;;;;;14.80;9.30;;;;;;;12.01;60.79;101194.28;5108323;28;20043;-71
2022/05/03 01:36:00;;;;;;;19.35;9.77;;;;;;;11.77;61.04;101193.72;5107296;28;20112;-71
2022/05/03 01:38:35;;;;;;;16.58;10.18;;;;;;;11.74;61.48;101190.41;5108011;28;20035;-71
2022/05/03 01:41:16;;;;;;;13.48;9.82;;;;;;;11.98;60.60;101194.41;5106523;27;20043;-71
2022/05/03 01:43:56;;;;;;;12.77;8.68;;;;;;;11.91;60.83;101190.41;5097322;28;20585;-71
2022/05/03 01:46:28;;;;;;;15.30;9.30;;;;;;;11.96;60.54;101188.41;5108048;28;20039;-71
2022/05/03 01:52:11;;;;;;;16.10;9.93;;;;;;;11.78;60.96;101195.44;5107874;27;20509;-71
2022/05/03 01:54:59;;;;;;;20.33;9.68;;;;;;;11.58;61.31;101199.00;5104949;27;20071;-71
2022/05/03 01:57:29;;;;;;;16.52;9.30;;;;;;;11.12;62.94;101196.88;5108157;27;20141;-71
2022/05/03 02:00:04;;;;;;;15.20;9.43;;;;;;;10.94;63.62;101200.34;5099697;27;20040;-71
2022/05/03 02:02:52;;;;;;;15.93;9.40;;;;;;;11.30;63.21;101196.00;5107793;27;20051;-71
2022/05/03 02:05:29;;;;;;;14.65;9.77;;;;;;;11.52;62.15;101183.53;5107659;27;20047;-71
2022/05/03 02:07:57;;;;;;;12.25;8.63;;;;;;;11.70;61.52;101187.91;5108402;28;20043;-71
2022/05/03 02:10:42;;;;;;;16.70;9.65;;;;;;;11.36;62.77;101186.97;5105844;27;20441;-71
2022/05/03 02:14:43;;;;;;;12.48;9.38;;;;;;;11.48;62.03;101191.63;5106551;28;20085;-71
2022/05/03 02:16:28;;;;;;;11.60;8.98;;;;;;;11.11;63.25;101188.13;5109859;27;20119;-71
2022/05/03 02:19:06;;;;;;;14.68;9.07;;;;;;;11.28;62.59;101184.69;5103606;27;20046;-71
2022/05/03 02:21:39;;;;;;;17.17;9.13;;;;;;;11.39;62.09;101187.66;5111246;27;20659;-71
2022/05/03 02:24:16;;;;;;;13.98;8.70;;;;;;;11.09;62.62;101184.72;5111303;28;20480;-71
2022/05/03 02:26:50;;;;;;;14.48;9.23;;;;;;;11.23;62.06;101189.34;5108818;27;20639;-71
2022/05/03 02:29:19;;;;;;;20.83;10.68;;;;;;;11.38;61.24;101185.97;5105585;27;20116;-71
2022/05/03 02:31:50;;;;;;;13.27;9.10;;;;;;;11.37;61.57;101194.78;5112824;27;20048;-71
2022/05/03 02:34:29;;;;;;;16.85;9.40;;;;;;;11.57;60.13;101189.41;5111075;27;20047;-71
2022/05/03 02:37:00;;;;;;;13.60;9.18;;;;;;;11.40;61.19;101173.63;5111229;27;20451;-71
2022/05/03 02:39:31;;;;;;;10.75;8.38;;;;;;;11.35;61.05;101175.59;5109309;27;20046;-71
2022/05/03 02:42:00;;;;;;;14.10;8.68;;;;;;;11.36;60.88;101179.94;5111336;27;20108;-71
2022/05/03 02:44:29;;;;;;;12.57;9.27;;;;;;;11.35;61.08;101183.47;5108163;27;20089;-71
2022/05/03 02:47:04;;;;;;;16.40;9.18;;;;;;;11.29;61.14;101178.53;5110963;27;20096;-71
2022/05/03 02:49:53;;;;;;;13.07;8.88;;;;;;;11.28;60.86;101179.44;5108912;27;20039;-71
2022/05/03 02:52:28;;;;;;;16.20;9.13;;;;;;;11.32;60.82;101183.63;5107189;27;20055;-71
2022/05/03 02:55:04;;;;;;;16.30;9.30;;;;;;;10.93;61.91;101182.88;5111461;27;20423;-71
2022/05/03 02:57:37;;;;;;;14.00;8.85;;;;;;;11.05;61.73;101192.78;5110739;27;20039;-71
2022/05/03 03:03:06;;;;;;;13.30;8.85;;;;;;;10.65;62.61;101196.38;5111167;27;20510;-71
2022/05/03 03:05:38;;;;;;;14.77;9.10;;;;;;;10.65;63.01;101189.38;5110985;27;20043;-71
2022/05/03 03:08:06;;;;;;;17.70;8.93;;;;;;;10.86;62.16;101192.81;5110914;27;20051;-71
2022/05/03 03:10:38;;;;;;;13.52;8.18;;;;;;;10.71;62.57;101190.88;5113880;27;20101;-71
2022/05/03 03:13:10;;;;;;;;;;;;;;;11.17;60.35;101192.22;5110882;28;20043;-71
2022/05/03 03:15:40;;;;;;;15.35;8.38;;;;;;;11.36;59.83;101198.31;5110544;27;20356;-71
2022/05/03 03:18:13;;;;;;;11.98;7.88;;;;;;;11.50;59.21;101201.13;5104857;27;20081;-71
2022/05/03 03:20:45;;;;;;;17.00;8.68;;;;;;;11.39;59.62;101200.78;5108426;27;20054;-71
2022/05/03 03:23:15;;;;;;;18.17;9.70;;;;;;;11.18;60.37;101201.81;5112389;27;20158;-71
2022/05/03 03:25:43;;;;;;;16.38;8.32;;;;;;;10.53;62.51;101204.81;5127033;27;20135;-71
2022/05/03 03:28:12;;;;;;;12.85;8.18;;;;;;;10.37;63.71;101204.63;5111656;27;20078;-71
2022/05/03 03:30:39;;;;;;;13.00;8.13;;;;;;;10.69;62.47;101206.69;5109718;28;20419;-71
2022/05/03 03:33:07;;;;;;;10.93;7.25;;;;;;;10.20;63.88;101197.47;5110532;28;20043;-71
2022/05/03 03:35:35;;;;;;;12.82;7.47;;;;;;;10.63;62.90;101199.09;5110426;28;20047;-71
2022/05/03 03:38:04;;;;;;;11.90;7.82;;;;;;;10.33;63.66;101196.97;5110313;28;20127;-71
2022/05/03 03:40:30;;;;;;;11.50;7.05;;;;;;;10.46;63.15;101206.84;5108462;27;20112;-71
2022/05/03 03:42:57;;;;;;;11.02;6.75;;;;;;;10.57;63.01;101206.34;5110370;28;20100;-71
2022/05/03 03:45:24;;;;;;;12.30;7.32;;;;;;;11.10;60.97;101203.94;5110466;28;20039;-71
2022/05/03 03:47:50;;;;;;;13.77;7.80;;;;;;;10.78;62.48;101200.19;5109186;27;20391;-71
2022/05/03 03:50:17;;;;;;;12.13;7.53;;;;;;;10.90;62.45;101204.03;5101861;27;20459;-71
2022/05/03 03:52:46;;;;;;;13.13;7.82;;;;;;;10.36;64.13;101202.91;5108536;28;20648;-71
2022/05/03 03:55:14;;;;;;;12.55;8.05;;;;;;;10.36;64.60;101204.69;5109238;27;20522;-71
2022/05/03 03:57:41;;;;;;;13.63;7.78;;;;;;;10.13;65.43;101206.50;5128026;27;20062;-71
2022/05/03 04:00:09;;;;;;;11.18;6.95;;;;;;;10.30;64.83;101212.81;5129402;27;20039;-71
2022/05/03 04:02:36;;;;;;;16.13;8.10;;;;;;;10.06;65.35;101215.53;5123830;27;20043;-71
2022/05/03 04:05:03;;;;;;;11.25;6.88;;;;;;;10.05;65.32;101220.84;5109882;27;20039;-71
2022/05/03 04:07:30;;;;;;;13.80;7.18;;;;;;;9.77;65.67;101221.97;5109723;27;20517;-71
2022/05/03 04:09:56;;;;;;;13.48;7.10;;;;;;;10.22;64.62;101221.00;5109541;27;20051;-71
2022/05/03 04:12:24;;;;;;;17.38;7.18;;;;;;;10.45;63.29;101220.88;5117687;27;20502;-71
2022/05/03 04:14:50;;;;;;;11.10;6.82;;;;;;;10.54;62.94;101217.84;5129655;27;20099;-71
2022/05/03 04:17:16;;;;;;;16.42;7.90;;;;;;;10.58;62.88;101222.03;5116302;27;20040;-71
2022/05/03 04:19:43;;;;;;;13.82;7.53;;;;;;;10.68;62.21;101230.34;5108313;27;20147;-71
2022/05/03 04:22:26;;;;;;;10.23;6.68;;;;;;;10.71;62.07;101224.97;5108557;27;20131;-71
2022/05/03 04:24:52;;;;;;;11.13;7.03;;;;;;;10.22;63.42;101234.13;5096224;28;20108;-71
2022/05/03 04:27:19;;;;;;;10.98;6.10;;;;;;;10.75;61.92;101235.25;5108265;28;20067;-71
2022/05/03 04:29:46;;;;;;;15.77;6.95;;;;;;;10.87;61.56;101233.00;5113178;27;20495;-71
2022/05/03 04:32:13;;;;;;;11.93;6.68;;;;;;;10.91;61.76;101230.16;5108426;27;20067;-71
2022/05/03 04:34:39;;;;;;;9.88;6.45;;;;;;;11.02;61.22;101230.53;5109148;28;20128;-71
2022/05/03 04:37:06;;;;;;;9.77;6.03;;;;;;;11.29;59.64;101228.41;5108745;27;20104;-71
2022/05/03 04:39:32;;;;;;;12.63;6.28;;;;;;;11.41;58.80;101240.97;5107720;28;20044;-71
2022/05/03 04:41:58;;;;;;;10.38;6.15;;;;;;;11.42;59.36;101237.41;5109466;28;20479;-71
2022/05/03 04:44:25;;;;;;;12.65;6.45;;;;;;;11.29;59.58;101238.91;5109196;27;20039;-71
2022/05/03 04:46:52;;;;;;;12.05;5.93;;;;;;;11.41;58.96;101238.34;5108482;27;20043;-71
2022/05/03 04:49:19;;;;;;;9.20;5.90;;;;;;;11.78;57.63;101236.63;5107768;27;20519;-71
2022/05/03 04:51:45;;;;;;;12.30;5.93;;;;;;;11.97;56.70;101242.69;5108731;27;20096;-71
2022/05/03 04:54:12;;;;;;;11.88;6.10;;;;;;;11.88;57.10;101241.34;5108865;27;20096;-71
2022/05/03 04:56:38;;;;;;;12.13;5.97;;;;;;;11.82;57.34;101248.69;5108610;27;20092;-72
2022/05/03 04:59:05;;;;;;;10.50;5.82;;;;;;;11.77;57.40;101245.41;5102853;27;20043;-72
2022/05/03 05:01:31;;;;;;;13.32;5.35;;;;;;;11.83;57.69;101247.72;5119954;27;20043;-72
2022/05/03 05:03:59;;;;;;;10.88;5.70;;;;;;;11.80;57.82;101250.50;5129338;27;20043;-72
2022/05/03 05:06:25;;;;;;;9.90;5.10;;;;;;;12.08;57.05;101250.88;5129618;27;20043;-72
2022/05/03 05:08:52;;;;;;;12.68;5.50;;;;;;;12.08;57.87;101245.63;5128313;27;20039;-72
2022/05/03 05:11:18;;;;;;;9.32;5.15;;;;;;;12.50;56.12;101246.06;5129074;27;20487;-71
2022/05/03 05:13:45;;;;;;;13.30;5.57;;;;;;;12.72;55.74;101243.16;5128823;27;20043;-72
2022/05/03 05:16:13;;;;;;;9.82;5.30;;;;;;;12.34;57.07;101253.03;5124715;27;20056;-72
2022/05/03 05:18:39;;;;;;;13.93;5.18;;;;;;;12.40;56.72;101254.50;5109174;27;20047;-72
2022/05/03 05:21:07;;;;;;;14.73;7.05;;;;;;;12.39;56.72;101250.16;5108201;27;20067;-72
2022/05/03 05:23:33;;;;;;;15.30;6.20;;;;;;;12.96;56.26;101262.09;5108489;27;20389;-72
2022/05/03 05:25:59;;;;;;;9.00;4.85;;;;;;;13.01;56.11;101257.41;5108763;27;20453;-71
2022/05/03 05:28:26;;;;;;;6.68;5.18;;;;;;;12.98;54.65;101254.94;5106260;27;20040;-72
2022/05/03 05:30:53;;;;;;;11.40;4.78;;;;;;;13.45;53.62;101249.78;5107483;27;20556;-72
2022/05/03 05:33:20;;;;;;;10.13;4.32;;;;;;;13.36;52.96;101255.53;5109487;27;20461;-72
2022/05/03 05:35:47;;;;;;;8.90;5.07;;;;;;;13.27;53.68;101253.41;5108215;28;20046;-71
2022/05/03 05:38:16;;;;;;;12.00;4.40;;;;;;;13.40;53.86;101251.81;5107399;28;20462;-71
2022/05/03 05:40:42;;;;;;;17.38;5.82;;;;;;;13.59;52.86;101257.75;5106943;28;20043;-71
2022/05/03 05:43:09;;;;;;;7.78;4.50;;;;;;;13.90;51.85;101252.44;5108153;28;20096;-71
2022/05/03 05:45:36;;;;;;;15.40;4.80;;;;;;;13.48;52.36;101262.78;5108063;28;20116;-71
2022/05/03 05:48:03;;;;;;;9.23;4.57;;;;;;;13.93;50.55;101259.34;5106460;27;20035;-71
2022/05/03 05:50:30;;;;;;;8.02;4.25;;;;;;;14.41;50.76;101253.84;5110386;27;20048;-71
2022/05/03 05:55:43;;;;;;;6.85;4.30;;;;;;;14.28;50.24;101268.69;5112214;28;20412;-71
2022/05/03 05:58:09;;;;;;;10.93;4.22;;;;;;;14.35;50.73;101266.56;5106810;27;20491;-71
2022/05/03 06:00:36;;;;;;;7.35;4.60;;;;;;;14.24;51.47;101276.88;5112085;27;20073;-71
2022/05/03 06:03:02;;;;;;;8.52;4.00;;;;;;;14.41;51.79;101274.13;5112248;27;20047;-71
2022/05/03 06:05:30;;;;;;;8.23;4.18;;;;;;;14.24;51.61;101288.25;5124421;27;20039;-71
2022/05/03 06:07:57;;;;;;;9.80;4.53;;;;;;;13.83;52.76;101285.34;5115397;27;20039;-71
2022/05/03 06:10:24;;;;;;;6.50;4.50;;;;;;;13.97;52.69;101276.66;5111337;27;20384;-71
2022/05/03 06:12:53;;;;;;;7.65;4.80;;;;;;;14.05;52.20;101277.06;5106702;27;21652;-71
2022/05/03 06:15:19;;;;;;;10.18;4.85;;;;;;;13.90;51.95;101267.41;5105962;28;20075;-71
2022/05/03 06:17:46;;;;;;;7.75;6.00;;;;;;;13.75;51.80;101273.53;5110693;28;20052;-71
2022/05/03 06:20:13;;;;;;;12.80;5.15;;;;;;;13.76;52.94;101276.09;5104805;27;20681;-71
2022/05/03 06:22:40;;;;;;;7.95;4.95;;;;;;;13.49;51.98;101288.16;5119585;27;20071;-71
2022/05/03 06:25:08;;;;;;;8.55;4.30;;;;;;;13.28;52.65;101300.72;5110652;27;20582;-71
2022/05/03 06:27:35;;;;;;;10.10;5.00;;;;;;;13.28;53.58;101290.19;5105913;27;20414;-71
2022/05/03 06:30:03;;;;;;;7.28;4.68;;;;;;;13.67;53.36;101292.44;5107788;27;20048;-71
2022/05/03 06:32:30;;;;;;;7.13;3.75;;;;;;;14.23;52.83;101299.75;5102813;28;20048;-71
2022/05/03 06:34:56;;;;;;;8.80;4.05;;;;;;;14.63;49.33;101293.84;5109033;27;20039;-71
2022/05/03 06:37:22;;;;;;;6.70;3.83;;;;;;;14.57;49.06;101290.75;5104096;27;20121;-72
2022/05/03 06:39:49;;;;;;;7.03;3.90;;;;;;;14.90;48.86;101288.72;5109362;27;20047;-72
2022/05/03 06:42:16;;;;;;;6.03;3.70;;;;;;;15.08;48.95;101286.72;5112556;27;20067;-71
2022/05/03 06:44:42;;;;;;;6.72;4.30;;;;;;;15.67;49.61;101300.69;5111002;28;20043;-71
2022/05/03 06:47:10;;;;;;;10.07;4.85;;;;;;;15.50;47.17;101294.66;5108063;27;20043;-71
2022/05/03 06:49:36;;;;;;;11.70;4.70;;;;;;;15.51;48.22;101284.94;5108470;27;20043;-71
2022/05/03 06:52:03;;;;;;;9.88;4.50;;;;;;;15.88;47.35;101288.72;5110985;28;20044;-71
2022/05/03 06:54:29;;;;;;;10.15;4.50;;;;;;;15.95;48.86;101298.81;5110759;28;20043;-71
2022/05/03 06:56:56;;;;;;;17.08;4.95;;;;;;;16.18;46.50;101299.94;5110981;27;20088;-70
2022/05/03 06:59:22;;;;;;;15.23;4.93;;;;;;;15.80;48.89;101297.16;5108465;27;20097;-71
2022/05/03 07:01:48;;;;;;;7.97;5.10;;;;;;;15.67;48.35;101305.97;5089658;28;20133;-71
2022/05/03 07:04:16;;;;;;;10.63;4.70;;;;;;;15.46;49.05;101308.13;5090679;28;20067;-71
2022/05/03 07:06:42;;;;;;;8.70;4.90;;;;;;;14.83;49.70;101315.56;5109139;27;20039;-71
2022/05/03 07:09:09;;;;;;;9.02;4.80;;;;;;;15.03;49.94;101304.66;5102310;27;20055;-71
2022/05/03 07:11:35;;;;;;;9.18;5.22;;;;;;;15.56;50.44;101315.41;5114920;27;20051;-71
2022/05/03 07:14:02;;;;;;;8.88;4.85;;;;;;;15.43;53.00;101313.63;5110336;27;20082;-66
2022/05/03 07:16:28;;;;;;;10.77;5.03;;;;;;;15.76;49.32;101321.22;5110202;28;20572;-71
2022/05/03 07:24:24;;;;;;;11.15;4.93;;;;;;;17.04;48.88;101309.06;5106277;27;20123;-71
2022/05/03 07:26:51;;;;;;;7.30;4.85;;;;;;;17.25;46.88;101312.88;5108468;27;20043;-71
2022/05/03 07:29:17;;;;;;;8.57;4.43;;;;;;;17.04;45.36;101317.00;5107246;27;20050;-71
2022/05/03 07:31:44;;;;;;;16.13;5.10;;;;;;;16.48;46.87;101311.09;5108412;27;20043;-71
2022/05/03 07:34:10;;;;;;;10.68;5.18;;;;;;;16.47;46.91;101309.44;5108376;27;20081;-71
2022/05/03 07:36:37;;;;;;;7.28;4.63;;;;;;;16.70;47.60;101320.31;5110535;28;20044;-71
2022/05/03 07:39:05;;;;;;;16.95;5.55;;;;;;;16.32;47.89;101321.03;5108461;28;20052;-71
2022/05/03 07:41:31;;;;;;;12.55;4.72;;;;;;;16.56;48.47;101323.88;5106956;28;20098;-71
2022/05/03 07:43:57;;;;;;;11.00;5.20;;;;;;;16.26;47.92;101331.19;5109768;28;20089;-71
2022/05/03 07:46:24;;;;;;;9.15;5.15;;;;;;;16.30;49.30;101330.88;5096569;28;20051;-71
2022/05/03 07:48:50;;;;;;;8.82;5.10;;;;;;;16.54;48.17;101336.34;5108549;27;20109;-71
2022/05/03 07:51:17;;;;;;;9.50;4.85;;;;;;;16.69;46.78;101342.44;5110659;27;20415;-71
2022/05/03 07:53:43;;;;;;;10.90;4.68;;;;;;;16.97;47.77;101343.09;5109839;27;20048;-71
2022/05/03 07:56:11;;;;;;;9.95;4.30;;;;;;;16.98;47.26;101341.28;5099456;28;20430;-70
2022/05/03 07:58:37;;;;;;;10.00;4.53;;;;;;;16.96;45.62;101345.88;5102297;27;20052;-72
2022/05/03 08:01:05;;;;;;;8.60;4.53;;;;;;;17.34;47.48;101348.47;5109028;27;20120;-72
2022/05/03 08:03:31;;;;;;;8.95;4.60;;;;;;;17.79;45.07;101344.41;5109740;28;20047;-72
2022/05/03 08:05:58;;;;;;;8.52;4.80;;;;;;;18.58;42.91;101342.06;5109987;28;20039;-72
2022/05/03 08:08:24;;;;;;;12.63;4.57;;;;;;;19.41;43.86;101346.22;5109509;27;20047;-72
2022/05/03 08:10:51;;;;;;;11.18;4.38;;;;;;;19.72;43.29;101346.44;5108605;28;20130;-72
2022/05/03 08:13:18;;;;;;;6.55;4.40;;;;;;;20.06;43.94;101331.25;5096351;28;20569;-72
2022/05/03 08:15:45;;;;;;;6.07;4.07;;;;;;;20.26;40.55;101323.28;5101987;28;20047;-72
2022/05/03 08:18:11;;;;;;;7.45;4.43;;;;;;;19.96;41.61;101330.28;5108827;27;20159;-72
2022/05/03 08:20:38;;;;;;;13.32;4.95;;;;;;;19.77;40.01;101322.97;5107828;27;20092;-72
2022/05/03 08:23:04;;;;;;;14.90;5.60;;;;;;;19.68;40.96;101335.19;5109141;27;20047;-72
2022/05/03 08:25:32;;;;;;;7.78;4.50;;;;;;;19.96;40.34;101338.25;5109626;27;20051;-72
2022/05/03 08:27:58;;;;;;;9.15;4.80;;;;;;;20.28;41.14;101329.38;5103834;27;20043;-72
2022/05/03 08:30:26;;;;;;;8.07;5.20;;;;;;;21.23;39.08;101336.34;5109156;27;20279;-72
2022/05/03 08:32:52;;;;;;;6.63;4.35;;;;;;;21.41;36.75;101341.06;5107531;27;20071;-72
2022/05/03 08:35:21;;;;;;;8.20;4.15;;;;;;;21.87;35.35;101340.50;5109214;28;20052;-73
2022/05/03 08:43:18;;;;;;;5.70;3.90;;;;;;;21.27;41.07;101347.59;5071953;28;20036;-72
2022/05/03 08:45:49;;;;;;;7.10;4.00;;;;;;;21.84;36.71;101349.63;5107602;28;20039;-72
2022/05/03 08:48:16;;;;;;;7.07;4.20;;;;;;;21.82;35.77;101339.09;5102822;27;20051;-73
2022/05/03 08:50:43;;;;;;;5.40;3.83;;;;;;;21.99;37.54;101340.25;5107396;27;20044;-73
2022/05/03 08:53:10;;;;;;;5.82;3.85;;;;;;;22.22;38.07;101344.38;5088530;28;20074;-73
2022/05/03 08:55:41;;;;;;;6.65;3.65;;;;;;;21.58;39.28;101345.78;5094933;27;20047;-72
2022/05/03 08:58:07;;;;;;;9.43;4.20;;;;;;;21.78;35.30;101339.50;5099121;27;20051;-73
2022/05/03 09:00:34;;;;;;;9.68;3.90;;;;;;;21.79;37.01;101343.88;5106065;28;20048;-73
2022/05/03 09:03:03;;;;;;;6.50;3.30;;;;;;;21.33;36.97;101347.06;5101887;27;20039;-72
2022/05/03 09:05:29;;;;;;;6.28;3.63;;;;;;;21.28;36.73;101350.16;5088196;28;20044;-72
2022/05/03 09:07:57;;;;;;;8.82;4.15;;;;;;;21.05;38.31;101345.06;5116436;27;20047;-73
2022/05/03 09:10:27;;;;;;;7.35;3.50;;;;;;;21.17;38.08;101339.56;5127227;27;20047;-73
2022/05/03 09:12:55;;;;;;;6.35;3.60;;;;;;;21.81;34.16;101333.88;5129020;27;20579;-72
2022/05/03 09:15:32;;;;;;;8.13;3.78;;;;;;;21.20;34.67;101336.63;5128857;27;20063;-72
2022/05/03 09:17:59;;;;;;;4.97;3.00;;;;;;;20.44;35.14;101330.75;5108796;27;20086;-72
2022/05/03 09:26:11;;;;;;;9.13;2.88;;;;;;;21.93;34.42;101327.47;5101897;28;20074;-72
2022/05/03 09:28:45;;;;;;;4.72;3.10;;;;;;;21.70;33.33;101329.50;5107830;27;20040;-72
2022/05/03 09:31:12;;;;;;;4.70;2.95;;;;;;;21.60;36.43;101343.78;5108329;27;20035;-72
2022/05/03 09:33:39;;;;;;;6.55;2.95;;;;;;;22.16;35.28;101326.25;5108122;27;20134;-72
2022/05/03 09:36:10;;;;;;;6.63;3.13;;;;;;;22.60;36.21;101329.31;5091137;27;20480;-73
2022/05/03 09:38:45;;;;;;;5.30;2.88;;;;;;;21.95;34.86;101330.84;5088285;28;20051;-73
2022/05/03 09:41:14;;;;;;;5.95;3.00;;;;;;;22.03;34.50;101325.66;5086637;28;20050;-73
2022/05/03 09:44:00;;;;;;;7.55;2.85;;;;;;;22.13;32.98;101334.56;5087728;28;20046;-73
2022/05/03 09:46:27;;;;;;;1.90;1.58;;;;;;;22.17;32.51;101316.41;5096133;28;20089;-73
2022/05/03 09:48:54;;;;;;;3.15;1.67;;;;;;;22.74;32.39;101331.59;5104132;27;20071;-73
2022/05/03 09:51:22;;;;;;;8.43;2.15;;;;;;;23.17;29.17;101320.38;5108215;27;20052;-73
2022/05/03 09:53:56;;;;;;;7.57;2.30;;;;;;;23.45;32.72;101326.63;5107492;27;20044;-73
2022/05/03 09:56:26;;;;;;;5.30;2.60;;;;;;;23.67;32.64;101312.84;5107969;28;20051;-73
2022/05/03 09:58:57;;;;;;;5.93;2.85;;;;;;;24.01;31.88;101316.56;5106586;27;20403;-73
2022/05/03 10:01:24;;;;;;;8.15;2.70;;;;;;;24.45;32.41;101311.31;5106167;28;20047;-73
2022/05/03 10:03:52;;;;;;;6.38;2.80;;;;;;;24.83;30.50;101316.31;5107370;28;20043;-73
2022/05/03 10:06:20;;;;;;;4.72;2.53;;;;;;;25.07;29.78;101316.47;5112228;27;20108;-72
2022/05/03 10:08:49;;;;;;;6.85;2.67;;;;;;;25.03;28.95;101304.38;5109138;27;20047;-72
2022/05/03 10:11:16;;;;;;;5.55;2.60;;;;;;;25.20;31.39;101308.00;5106849;28;20044;-72
2022/05/03 10:13:43;;;;;;;5.07;2.40;;;;;;;25.36;29.87;101310.75;5107624;28;20473;-73
2022/05/03 10:21:50;;;;;;;6.38;2.70;;;;;;;25.31;29.95;101296.13;5107817;28;20055;-72
2022/05/03 10:24:19;;;;;;;5.25;2.30;;;;;;;25.57;30.28;101295.06;5107998;28;20065;-72
2022/05/03 10:26:55;;;;;;;4.35;2.05;;;;;;;25.56;26.86;101287.19;5106783;27;20059;-72
2022/05/03 10:29:22;;;;;;;3.97;2.22;;;;;;;25.26;27.97;101295.75;5101057;27;20047;-72
2022/05/03 10:31:59;;;;;;;5.50;2.30;;;;;;;25.04;27.46;101289.97;5101840;28;20183;-73
2022/05/03 10:34:49;;;;;;;3.72;2.30;;;;;;;24.91;28.37;101289.53;5107410;28;20483;-73
2022/05/03 10:37:17;;;;;;;4.75;2.38;;;;;;;24.61;28.92;101287.31;5105523;28;20085;-73
2022/05/03 10:39:57;;;;;;;6.30;2.20;;;;;;;24.06;29.60;101284.78;5110733;27;20044;-73
2022/05/03 10:42:25;;;;;;;5.18;1.98;;;;;;;24.38;26.15;101284.28;5111456;27;20051;-73
2022/05/03 10:45:01;;;;;;;8.23;2.08;;;;;;;24.89;28.81;101288.88;5096457;28;20047;-73
2022/05/03 10:47:44;;;;;;;5.03;1.90;;;;;;;25.11;26.99;101280.28;5104775;28;20039;-74
2022/05/03 10:50:33;;;;;;;4.25;1.85;;;;;;;25.36;25.20;101285.72;5109801;27;20445;-74
2022/05/03 10:53:19;;;;;;;6.78;1.90;;;;;;;24.94;26.76;101280.34;5106583;28;20071;-73
2022/05/03 10:56:19;;;;;;;2.70;1.60;;;;;;;24.92;27.56;101283.19;5109284;27;20700;-73
2022/05/03 10:58:48;;;;;;;5.63;1.90;;;;;;;25.05;29.36;101275.56;5110494;27;20074;-73
2022/05/03 11:01:18;;;;;;;2.72;1.70;;;;;;;25.37;26.14;101272.16;5096280;27;20556;-73
2022/05/03 11:04:10;;;;;;;6.35;1.70;;;;;;;25.83;28.92;101265.44;5094596;28;20130;-74
2022/05/03 11:06:44;;;;;;;6.28;2.00;;;;;;;25.86;25.12;101265.13;5098583;27;20036;-73
2022/05/03 11:09:11;;;;;;;4.50;1.90;;;;;;;25.89;27.08;101256.72;5108267;28;20123;-73
2022/05/03 11:12:10;;;;;;;4.32;1.60;;;;;;;24.66;26.42;101266.22;5095993;27;20523;-73
2022/05/03 11:14:50;;;;;;;4.25;1.60;;;;;;;24.91;27.12;101262.72;5066804;28;20109;-68
2022/05/03 11:17:18;;;;;;;4.75;1.67;;;;;;;25.19;25.41;101248.09;5098477;27;20108;-72
2022/05/03 11:19:51;;;;;;;3.15;1.50;;;;;;;25.01;24.72;101257.25;5109403;27;20552;-72
2022/05/03 11:22:19;;;;;;;2.67;1.33;;;;;;;25.64;26.09;101252.31;5109992;28;20050;-73
2022/05/03 11:24:47;;;;;;;3.47;1.40;;;;;;;25.50;29.18;101252.88;5110133;27;20042;-74
2022/05/03 11:27:16;;;;;;;6.45;1.40;;;;;;;25.65;27.52;101249.44;5109967;27;20039;-73
2022/05/03 11:29:44;;;;;;;6.70;1.20;;;;;;;25.38;30.07;101255.06;5109840;27;20063;-74
2022/05/03 11:32:11;;;;;;;5.57;1.50;;;;;;;25.38;27.34;101248.84;5099970;28;20453;-73
2022/05/03 11:34:38;;;;;;;7.97;1.30;;;;;;;25.60;28.94;101248.28;5109726;28;20433;-68
2022/05/03 11:37:07;;;;;;;6.10;1.55;;;;;;;25.14;27.15;101236.16;5102546;27;20044;-68
2022/05/03 11:39:36;;;;;;;6.72;1.95;;;;;;;25.47;29.04;101245.16;5106080;27;20390;-74
2022/05/03 11:42:02;;;;;;;4.60;1.70;;;;;;;25.74;29.48;101244.94;5092781;28;20047;-74
2022/05/03 11:44:30;;;;;;;2.38;1.65;;;;;;;25.92;29.62;101244.81;5090962;28;20048;-74
2022/05/03 11:47:02;;;;;;;3.65;1.65;;;;;;;25.66;26.03;101239.56;5105366;27;20119;-73
2022/05/03 11:49:31;;;;;;;3.80;1.67;;;;;;;25.48;27.49;101233.44;5096427;27;20054;-68
2022/05/03 11:57:31;;;;;;;2.65;1.65;;;;;;;25.30;28.82;101222.81;5095898;28;20099;-73
2022/05/03 12:00:00;;;;;;;3.38;1.60;;;;;;;24.94;26.36;101224.00;5109183;27;20093;-74
2022/05/03 12:02:31;;;;;;;4.65;1.67;;;;;;;24.46;31.48;101224.53;5105362;28;20547;-73
2022/05/03 12:05:17;;;;;;;5.53;1.87;;;;;;;24.58;27.79;101223.25;5107802;28;20051;-73
2022/05/03 12:07:46;;;;;;;4.82;1.67;;;;;;;25.17;30.04;101225.94;5129554;27;20513;-73
2022/05/03 12:10:19;;;;;;;2.40;1.58;;;;;;;25.60;28.32;101224.09;5122397;27;20047;-73
2022/05/03 12:12:46;;;;;;;2.85;1.70;;;;;;;25.31;28.01;101224.50;5103391;27;20127;-73